Medford, OR (97501)

12:49 AM PST on February 10, 2016 (GMT -0800)
Southwest Medford (CW2551) | | Change Station
CLOSE
Current Station
Personal Weather Station
Location: Medford, OR
Elevation: 1472 ft
Nearby Weather Stations

Elev 1472 ft 42.31 °N, 122.90 °W | Updated 1 second ago

Partly Cloudy
Partly Cloudy
39.6 °F
Feels Like 40 °F
N
0.0
Wind Variable Wind from South
Gusts 0.0 mph

Today
High -- | Low -- °F
--% Chance of Precip.
Yesterday
High -- | Low -- °F
Precip. -- in
Pressure 30.19 in
Visibility 10.0 miles
Clouds Clear
Windchill 40 °F
Dew Point 36 °F
Humidity 88%
Rainfall 0.00 in
Snow Depth Not available.
7:15 AM 5:37 PM
Waxing Crescent, 4% visible
METAR KMFR 100753Z AUTO 00000KT 10SM CLR 07/04 A3019 RMK AO2 SLP224 T00670039 402000022
Pressure 30.19 in
Visibility 10.0 miles
Clouds Clear
Windchill 40 °F
Dew Point 36 °F
Humidity 88%
Rainfall 0.00 in
Snow Depth Not available.
7:15 AM 5:37 PM
Waxing Crescent, 4% visible
METAR KMFR 100753Z AUTO 00000KT 10SM CLR 07/04 A3019 RMK AO2 SLP224 T00670039 402000022

10-Day Weather Forecast

Almanac

Astronomy

Feb. 10, 2016 Rise Set
Actual Time
Civil Twilight
Nautical Twilight
Astronomical Twilight
Moon
Length of Visible Light
Length of Day
Tomorrow will be .
, % of the Moon is Illuminated

Today's Extremes

State Highs State Lows

Community

WunderPhotos

Upload Photos

1,891,826 photos uploaded!

WunderBlog® & News

Nearby

Air Quality

  Air Quality AQ Index Pollutant
Not available.

Snow Depth

Station Depth Elevation

Earthquake Activity

City Distance Mag. Time & Date
Minimum magnitude displayed is 2.5.

Coastal Water Temperatures

Place Temperature

Stations

Nearby Weather Stations

Station Location Temp. Windchill Dew Point Humidity Wind Precip. Elev Updated Type
                   

Watches & Warnings

There are currently no watches in effect.